sensor_id;sensor_type;location;lat;lon;timestamp;P1;durP1;ratioP1;P2;durP2;ratioP2
77226;SDS011;66234;47.642;19.144;2023-04-08T00:00:55;23.67;;;11.38;;
77226;SDS011;66234;47.642;19.144;2023-04-08T00:03:58;26.55;;;11.23;;
77226;SDS011;66234;47.642;19.144;2023-04-08T00:07:00;22.57;;;10.27;;
77226;SDS011;66234;47.642;19.144;2023-04-08T00:10:03;21.77;;;11.38;;
77226;SDS011;66234;47.642;19.144;2023-04-08T00:13:08;23.02;;;12.13;;
77226;SDS011;66234;47.642;19.144;2023-04-08T00:16:11;25.23;;;11.00;;
77226;SDS011;66234;47.642;19.144;2023-04-08T00:19:14;26.15;;;12.43;;
77226;SDS011;66234;47.642;19.144;2023-04-08T00:22:17;23.57;;;11.50;;
77226;SDS011;66234;47.642;19.144;2023-04-08T00:25:19;22.77;;;12.25;;
77226;SDS011;66234;47.642;19.144;2023-04-08T00:28:24;22.88;;;11.45;;
77226;SDS011;66234;47.642;19.144;2023-04-08T00:31:27;26.48;;;12.43;;
77226;SDS011;66234;47.642;19.144;2023-04-08T00:34:30;25.95;;;12.25;;
77226;SDS011;66234;47.642;19.144;2023-04-08T00:37:33;24.20;;;11.90;;
77226;SDS011;66234;47.642;19.144;2023-04-08T00:40:37;26.50;;;12.40;;
77226;SDS011;66234;47.642;19.144;2023-04-08T00:43:41;25.73;;;12.30;;
77226;SDS011;66234;47.642;19.144;2023-04-08T00:46:43;26.35;;;11.93;;
77226;SDS011;66234;47.642;19.144;2023-04-08T00:49:45;26.20;;;13.07;;
77226;SDS011;66234;47.642;19.144;2023-04-08T00:52:48;26.70;;;13.43;;
77226;SDS011;66234;47.642;19.144;2023-04-08T00:55:51;27.00;;;13.45;;
77226;SDS011;66234;47.642;19.144;2023-04-08T00:58:54;28.75;;;12.35;;
77226;SDS011;66234;47.642;19.144;2023-04-08T01:02:30;29.08;;;12.98;;
77226;SDS011;66234;47.642;19.144;2023-04-08T01:08:45;26.47;;;13.77;;
77226;SDS011;66234;47.642;19.144;2023-04-08T01:11:50;24.25;;;11.63;;
77226;SDS011;66234;47.642;19.144;2023-04-08T01:15:02;22.77;;;11.07;;
77226;SDS011;66234;47.642;19.144;2023-04-08T01:18:09;22.67;;;11.88;;
77226;SDS011;66234;47.642;19.144;2023-04-08T01:21:14;22.33;;;11.93;;
77226;SDS011;66234;47.642;19.144;2023-04-08T01:24:22;29.13;;;12.13;;
77226;SDS011;66234;47.642;19.144;2023-04-08T01:27:31;23.63;;;10.82;;
77226;SDS011;66234;47.642;19.144;2023-04-08T01:30:36;25.55;;;12.23;;
77226;SDS011;66234;47.642;19.144;2023-04-08T01:33:40;29.48;;;12.48;;
77226;SDS011;66234;47.642;19.144;2023-04-08T01:36:44;25.27;;;12.13;;
77226;SDS011;66234;47.642;19.144;2023-04-08T01:39:49;25.90;;;11.80;;
77226;SDS011;66234;47.642;19.144;2023-04-08T01:42:54;22.65;;;11.02;;
77226;SDS011;66234;47.642;19.144;2023-04-08T01:45:58;22.25;;;9.95;;
77226;SDS011;66234;47.642;19.144;2023-04-08T01:49:02;22.15;;;10.23;;
77226;SDS011;66234;47.642;19.144;2023-04-08T01:52:10;22.15;;;10.52;;
77226;SDS011;66234;47.642;19.144;2023-04-08T01:55:14;23.27;;;10.87;;
77226;SDS011;66234;47.642;19.144;2023-04-08T01:58:19;23.05;;;10.45;;
77226;SDS011;66234;47.642;19.144;2023-04-08T02:01:24;25.77;;;11.68;;
77226;SDS011;66234;47.642;19.144;2023-04-08T02:04:28;28.25;;;11.20;;
77226;SDS011;66234;47.642;19.144;2023-04-08T02:07:31;22.23;;;11.13;;
77226;SDS011;66234;47.642;19.144;2023-04-08T02:10:36;20.63;;;11.27;;
77226;SDS011;66234;47.642;19.144;2023-04-08T02:13:39;22.48;;;10.40;;
77226;SDS011;66234;47.642;19.144;2023-04-08T02:16:43;22.63;;;10.95;;
77226;SDS011;66234;47.642;19.144;2023-04-08T02:20:02;20.30;;;10.45;;
77226;SDS011;66234;47.642;19.144;2023-04-08T02:23:17;24.77;;;11.23;;
77226;SDS011;66234;47.642;19.144;2023-04-08T02:26:22;21.47;;;10.33;;
77226;SDS011;66234;47.642;19.144;2023-04-08T02:29:26;25.60;;;11.70;;
77226;SDS011;66234;47.642;19.144;2023-04-08T02:32:34;23.30;;;10.90;;
77226;SDS011;66234;47.642;19.144;2023-04-08T02:35:38;24.30;;;11.35;;
77226;SDS011;66234;47.642;19.144;2023-04-08T02:38:46;21.25;;;9.73;;
77226;SDS011;66234;47.642;19.144;2023-04-08T02:41:52;22.20;;;9.30;;
77226;SDS011;66234;47.642;19.144;2023-04-08T02:44:56;21.75;;;10.68;;
77226;SDS011;66234;47.642;19.144;2023-04-08T02:47:59;23.65;;;11.65;;
77226;SDS011;66234;47.642;19.144;2023-04-08T02:51:03;22.13;;;9.65;;
77226;SDS011;66234;47.642;19.144;2023-04-08T02:54:05;22.52;;;10.10;;
77226;SDS011;66234;47.642;19.144;2023-04-08T02:57:08;20.50;;;9.80;;
77226;SDS011;66234;47.642;19.144;2023-04-08T03:00:12;19.27;;;9.73;;
77226;SDS011;66234;47.642;19.144;2023-04-08T03:03:17;23.20;;;10.45;;
77226;SDS011;66234;47.642;19.144;2023-04-08T03:06:25;20.15;;;9.50;;
77226;SDS011;66234;47.642;19.144;2023-04-08T03:09:28;21.75;;;10.50;;
77226;SDS011;66234;47.642;19.144;2023-04-08T03:12:30;20.30;;;10.00;;
77226;SDS011;66234;47.642;19.144;2023-04-08T03:15:33;19.88;;;9.52;;
77226;SDS011;66234;47.642;19.144;2023-04-08T03:18:35;21.35;;;10.68;;
77226;SDS011;66234;47.642;19.144;2023-04-08T03:21:38;22.70;;;10.23;;
77226;SDS011;66234;47.642;19.144;2023-04-08T03:24:40;20.67;;;10.13;;
77226;SDS011;66234;47.642;19.144;2023-04-08T03:27:43;22.07;;;11.07;;
77226;SDS011;66234;47.642;19.144;2023-04-08T03:30:46;21.45;;;10.73;;
77226;SDS011;66234;47.642;19.144;2023-04-08T03:33:49;23.20;;;11.85;;
77226;SDS011;66234;47.642;19.144;2023-04-08T03:36:51;21.05;;;9.88;;
77226;SDS011;66234;47.642;19.144;2023-04-08T03:39:54;22.05;;;10.98;;
77226;SDS011;66234;47.642;19.144;2023-04-08T03:42:56;21.40;;;10.13;;
77226;SDS011;66234;47.642;19.144;2023-04-08T03:45:59;19.10;;;10.32;;
77226;SDS011;66234;47.642;19.144;2023-04-08T03:49:02;23.38;;;11.38;;
77226;SDS011;66234;47.642;19.144;2023-04-08T03:52:04;21.98;;;10.48;;
77226;SDS011;66234;47.642;19.144;2023-04-08T03:55:07;24.80;;;11.55;;
77226;SDS011;66234;47.642;19.144;2023-04-08T03:58:10;20.17;;;10.50;;
77226;SDS011;66234;47.642;19.144;2023-04-08T04:01:12;23.17;;;11.60;;
77226;SDS011;66234;47.642;19.144;2023-04-08T04:04:15;25.05;;;10.93;;
77226;SDS011;66234;47.642;19.144;2023-04-08T04:07:18;25.02;;;12.38;;
77226;SDS011;66234;47.642;19.144;2023-04-08T04:10:22;25.92;;;12.15;;
77226;SDS011;66234;47.642;19.144;2023-04-08T04:13:25;22.60;;;12.10;;
77226;SDS011;66234;47.642;19.144;2023-04-08T04:16:28;22.90;;;11.52;;
77226;SDS011;66234;47.642;19.144;2023-04-08T04:19:34;22.52;;;10.73;;
77226;SDS011;66234;47.642;19.144;2023-04-08T04:22:36;23.70;;;10.98;;
77226;SDS011;66234;47.642;19.144;2023-04-08T04:25:42;24.15;;;11.00;;
77226;SDS011;66234;47.642;19.144;2023-04-08T04:28:45;23.73;;;11.97;;
77226;SDS011;66234;47.642;19.144;2023-04-08T04:31:48;28.35;;;12.52;;
77226;SDS011;66234;47.642;19.144;2023-04-08T04:34:50;24.55;;;13.10;;
77226;SDS011;66234;47.642;19.144;2023-04-08T04:37:53;26.27;;;11.27;;
77226;SDS011;66234;47.642;19.144;2023-04-08T04:40:55;23.38;;;11.43;;
77226;SDS011;66234;47.642;19.144;2023-04-08T04:43:59;25.57;;;11.97;;
77226;SDS011;66234;47.642;19.144;2023-04-08T04:47:01;27.77;;;12.55;;
77226;SDS011;66234;47.642;19.144;2023-04-08T04:50:04;32.00;;;14.75;;
77226;SDS011;66234;47.642;19.144;2023-04-08T04:53:07;29.13;;;13.95;;
77226;SDS011;66234;47.642;19.144;2023-04-08T04:56:10;31.77;;;14.40;;
77226;SDS011;66234;47.642;19.144;2023-04-08T04:59:13;32.47;;;14.70;;
77226;SDS011;66234;47.642;19.144;2023-04-08T05:02:15;31.38;;;14.32;;
77226;SDS011;66234;47.642;19.144;2023-04-08T05:05:18;31.25;;;14.85;;
77226;SDS011;66234;47.642;19.144;2023-04-08T05:08:21;28.38;;;13.88;;
77226;SDS011;66234;47.642;19.144;2023-04-08T05:11:24;29.90;;;13.35;;
77226;SDS011;66234;47.642;19.144;2023-04-08T05:14:29;29.27;;;13.87;;
77226;SDS011;66234;47.642;19.144;2023-04-08T05:17:32;31.50;;;14.98;;
77226;SDS011;66234;47.642;19.144;2023-04-08T05:20:35;29.88;;;14.40;;
77226;SDS011;66234;47.642;19.144;2023-04-08T05:23:37;28.88;;;12.63;;
77226;SDS011;66234;47.642;19.144;2023-04-08T05:26:40;27.73;;;14.68;;
77226;SDS011;66234;47.642;19.144;2023-04-08T05:29:42;27.00;;;13.50;;
77226;SDS011;66234;47.642;19.144;2023-04-08T05:32:45;29.10;;;13.65;;
77226;SDS011;66234;47.642;19.144;2023-04-08T05:35:48;27.40;;;13.25;;
77226;SDS011;66234;47.642;19.144;2023-04-08T05:38:50;28.08;;;13.30;;
77226;SDS011;66234;47.642;19.144;2023-04-08T05:41:54;26.55;;;13.10;;
77226;SDS011;66234;47.642;19.144;2023-04-08T05:44:56;24.50;;;12.77;;
77226;SDS011;66234;47.642;19.144;2023-04-08T05:47:59;28.40;;;13.32;;
77226;SDS011;66234;47.642;19.144;2023-04-08T05:51:03;31.48;;;14.23;;
77226;SDS011;66234;47.642;19.144;2023-04-08T05:54:06;22.15;;;12.05;;
77226;SDS011;66234;47.642;19.144;2023-04-08T05:57:08;28.63;;;13.07;;
77226;SDS011;66234;47.642;19.144;2023-04-08T06:00:12;30.07;;;13.93;;
77226;SDS011;66234;47.642;19.144;2023-04-08T06:03:15;30.75;;;13.57;;
77226;SDS011;66234;47.642;19.144;2023-04-08T06:06:22;31.02;;;14.55;;
77226;SDS011;66234;47.642;19.144;2023-04-08T06:09:25;29.50;;;13.68;;
77226;SDS011;66234;47.642;19.144;2023-04-08T06:12:27;31.38;;;13.60;;
77226;SDS011;66234;47.642;19.144;2023-04-08T06:15:30;29.97;;;13.83;;
77226;SDS011;66234;47.642;19.144;2023-04-08T06:18:33;27.75;;;13.35;;
77226;SDS011;66234;47.642;19.144;2023-04-08T06:21:36;26.80;;;12.60;;
77226;SDS011;66234;47.642;19.144;2023-04-08T06:24:38;25.52;;;12.73;;
77226;SDS011;66234;47.642;19.144;2023-04-08T06:27:41;25.88;;;11.70;;
77226;SDS011;66234;47.642;19.144;2023-04-08T06:30:44;24.87;;;11.17;;
77226;SDS011;66234;47.642;19.144;2023-04-08T06:33:46;23.40;;;12.10;;
77226;SDS011;66234;47.642;19.144;2023-04-08T06:36:49;25.20;;;11.48;;
77226;SDS011;66234;47.642;19.144;2023-04-08T06:39:52;21.08;;;10.77;;
77226;SDS011;66234;47.642;19.144;2023-04-08T06:42:55;25.77;;;11.57;;
77226;SDS011;66234;47.642;19.144;2023-04-08T06:46:09;27.60;;;12.40;;
77226;SDS011;66234;47.642;19.144;2023-04-08T06:49:12;24.90;;;11.85;;
77226;SDS011;66234;47.642;19.144;2023-04-08T06:52:15;27.35;;;13.13;;
77226;SDS011;66234;47.642;19.144;2023-04-08T06:55:18;25.10;;;11.23;;
77226;SDS011;66234;47.642;19.144;2023-04-08T06:58:20;28.17;;;12.50;;
77226;SDS011;66234;47.642;19.144;2023-04-08T07:01:23;25.00;;;13.27;;
77226;SDS011;66234;47.642;19.144;2023-04-08T07:04:26;31.52;;;13.43;;
77226;SDS011;66234;47.642;19.144;2023-04-08T07:07:29;26.98;;;13.73;;
77226;SDS011;66234;47.642;19.144;2023-04-08T07:10:33;25.58;;;13.88;;
77226;SDS011;66234;47.642;19.144;2023-04-08T07:13:37;34.67;;;15.38;;
77226;SDS011;66234;47.642;19.144;2023-04-08T07:16:39;26.83;;;12.37;;
77226;SDS011;66234;47.642;19.144;2023-04-08T07:19:42;31.50;;;13.65;;
77226;SDS011;66234;47.642;19.144;2023-04-08T07:22:45;35.45;;;14.48;;
77226;SDS011;66234;47.642;19.144;2023-04-08T07:25:47;28.00;;;13.30;;
77226;SDS011;66234;47.642;19.144;2023-04-08T07:28:50;28.20;;;13.20;;
77226;SDS011;66234;47.642;19.144;2023-04-08T07:31:53;25.03;;;11.93;;
77226;SDS011;66234;47.642;19.144;2023-04-08T07:34:55;24.08;;;11.15;;
77226;SDS011;66234;47.642;19.144;2023-04-08T07:37:58;24.05;;;11.52;;
77226;SDS011;66234;47.642;19.144;2023-04-08T07:41:01;24.17;;;11.90;;
77226;SDS011;66234;47.642;19.144;2023-04-08T07:44:03;25.13;;;12.50;;
77226;SDS011;66234;47.642;19.144;2023-04-08T07:47:07;24.70;;;11.50;;
77226;SDS011;66234;47.642;19.144;2023-04-08T07:50:10;21.15;;;10.40;;
77226;SDS011;66234;47.642;19.144;2023-04-08T07:53:14;22.40;;;10.70;;
77226;SDS011;66234;47.642;19.144;2023-04-08T07:56:16;19.63;;;10.10;;
77226;SDS011;66234;47.642;19.144;2023-04-08T07:59:19;20.15;;;10.73;;
77226;SDS011;66234;47.642;19.144;2023-04-08T08:02:22;22.47;;;10.93;;
77226;SDS011;66234;47.642;19.144;2023-04-08T08:05:25;20.48;;;9.93;;
77226;SDS011;66234;47.642;19.144;2023-04-08T08:08:27;15.63;;;8.50;;
77226;SDS011;66234;47.642;19.144;2023-04-08T08:11:30;19.58;;;10.02;;
77226;SDS011;66234;47.642;19.144;2023-04-08T08:14:34;15.63;;;8.60;;
77226;SDS011;66234;47.642;19.144;2023-04-08T08:17:36;18.67;;;9.97;;
77226;SDS011;66234;47.642;19.144;2023-04-08T08:20:41;16.92;;;9.32;;
77226;SDS011;66234;47.642;19.144;2023-04-08T08:23:43;18.60;;;9.35;;
77226;SDS011;66234;47.642;19.144;2023-04-08T08:26:46;19.08;;;9.18;;
77226;SDS011;66234;47.642;19.144;2023-04-08T08:29:50;20.17;;;10.43;;
77226;SDS011;66234;47.642;19.144;2023-04-08T08:32:53;20.23;;;10.23;;
77226;SDS011;66234;47.642;19.144;2023-04-08T08:35:57;18.15;;;9.60;;
77226;SDS011;66234;47.642;19.144;2023-04-08T08:39:00;22.15;;;11.63;;
77226;SDS011;66234;47.642;19.144;2023-04-08T08:42:03;19.63;;;10.55;;
77226;SDS011;66234;47.642;19.144;2023-04-08T08:45:06;21.10;;;10.95;;
77226;SDS011;66234;47.642;19.144;2023-04-08T08:48:09;18.93;;;11.03;;
77226;SDS011;66234;47.642;19.144;2023-04-08T08:51:12;22.83;;;11.73;;
77226;SDS011;66234;47.642;19.144;2023-04-08T08:54:15;21.33;;;10.98;;
77226;SDS011;66234;47.642;19.144;2023-04-08T08:57:18;18.67;;;11.07;;
77226;SDS011;66234;47.642;19.144;2023-04-08T09:03:38;20.57;;;11.37;;
77226;SDS011;66234;47.642;19.144;2023-04-08T09:06:41;20.10;;;10.88;;
77226;SDS011;66234;47.642;19.144;2023-04-08T09:09:53;21.63;;;10.90;;
77226;SDS011;66234;47.642;19.144;2023-04-08T09:12:57;20.45;;;10.80;;
77226;SDS011;66234;47.642;19.144;2023-04-08T09:16:00;19.17;;;10.43;;
77226;SDS011;66234;47.642;19.144;2023-04-08T09:19:08;19.07;;;10.33;;
77226;SDS011;66234;47.642;19.144;2023-04-08T09:22:12;19.48;;;10.77;;
77226;SDS011;66234;47.642;19.144;2023-04-08T09:25:24;19.88;;;11.45;;
77226;SDS011;66234;47.642;19.144;2023-04-08T09:28:28;16.85;;;9.82;;
77226;SDS011;66234;47.642;19.144;2023-04-08T09:31:32;18.05;;;10.35;;
77226;SDS011;66234;47.642;19.144;2023-04-08T09:34:37;16.77;;;9.53;;
77226;SDS011;66234;47.642;19.144;2023-04-08T09:37:41;15.93;;;10.02;;
77226;SDS011;66234;47.642;19.144;2023-04-08T09:40:44;17.30;;;9.63;;
77226;SDS011;66234;47.642;19.144;2023-04-08T09:43:48;12.98;;;8.90;;
77226;SDS011;66234;47.642;19.144;2023-04-08T09:50:14;18.87;;;11.30;;
77226;SDS011;66234;47.642;19.144;2023-04-08T09:53:29;20.65;;;11.13;;
77226;SDS011;66234;47.642;19.144;2023-04-08T09:56:38;23.63;;;12.95;;
77226;SDS011;66234;47.642;19.144;2023-04-08T09:59:48;18.77;;;11.30;;
77226;SDS011;66234;47.642;19.144;2023-04-08T10:06:02;19.90;;;10.63;;
77226;SDS011;66234;47.642;19.144;2023-04-08T10:09:06;21.05;;;11.85;;
77226;SDS011;66234;47.642;19.144;2023-04-08T10:12:09;19.98;;;11.38;;
77226;SDS011;66234;47.642;19.144;2023-04-08T10:18:32;19.13;;;11.43;;
77226;SDS011;66234;47.642;19.144;2023-04-08T10:21:35;17.63;;;11.00;;
77226;SDS011;66234;47.642;19.144;2023-04-08T10:31:21;20.27;;;10.05;;
77226;SDS011;66234;47.642;19.144;2023-04-08T10:34:25;21.80;;;12.05;;
77226;SDS011;66234;47.642;19.144;2023-04-08T10:37:28;18.93;;;11.03;;
77226;SDS011;66234;47.642;19.144;2023-04-08T10:40:34;18.63;;;10.93;;
77226;SDS011;66234;47.642;19.144;2023-04-08T10:43:40;20.92;;;11.57;;
77226;SDS011;66234;47.642;19.144;2023-04-08T10:46:43;16.40;;;9.88;;
77226;SDS011;66234;47.642;19.144;2023-04-08T10:49:48;17.73;;;11.32;;
77226;SDS011;66234;47.642;19.144;2023-04-08T10:52:53;19.73;;;10.90;;
77226;SDS011;66234;47.642;19.144;2023-04-08T10:59:17;19.48;;;10.98;;
77226;SDS011;66234;47.642;19.144;2023-04-08T11:02:32;19.23;;;11.25;;
77226;SDS011;66234;47.642;19.144;2023-04-08T11:05:35;19.15;;;10.60;;
77226;SDS011;66234;47.642;19.144;2023-04-08T11:08:39;18.50;;;10.90;;
77226;SDS011;66234;47.642;19.144;2023-04-08T11:11:43;21.33;;;11.55;;
77226;SDS011;66234;47.642;19.144;2023-04-08T11:14:47;22.20;;;12.20;;
77226;SDS011;66234;47.642;19.144;2023-04-08T11:17:53;22.58;;;11.80;;
77226;SDS011;66234;47.642;19.144;2023-04-08T11:20:57;19.48;;;11.38;;
77226;SDS011;66234;47.642;19.144;2023-04-08T11:24:05;17.27;;;9.60;;
77226;SDS011;66234;47.642;19.144;2023-04-08T11:27:08;20.23;;;11.18;;
77226;SDS011;66234;47.642;19.144;2023-04-08T11:30:11;17.92;;;9.98;;
77226;SDS011;66234;47.642;19.144;2023-04-08T11:33:16;15.18;;;8.82;;
77226;SDS011;66234;47.642;19.144;2023-04-08T11:36:19;23.73;;;14.85;;
77226;SDS011;66234;47.642;19.144;2023-04-08T11:39:23;13.63;;;8.97;;
77226;SDS011;66234;47.642;19.144;2023-04-08T11:42:28;20.00;;;12.25;;
77226;SDS011;66234;47.642;19.144;2023-04-08T11:45:36;16.35;;;9.73;;
77226;SDS011;66234;47.642;19.144;2023-04-08T11:48:40;14.63;;;9.32;;
77226;SDS011;66234;47.642;19.144;2023-04-08T11:51:53;13.93;;;8.98;;
77226;SDS011;66234;47.642;19.144;2023-04-08T11:54:57;14.03;;;8.50;;
77226;SDS011;66234;47.642;19.144;2023-04-08T11:58:03;14.05;;;8.65;;
77226;SDS011;66234;47.642;19.144;2023-04-08T12:01:07;15.25;;;8.95;;
77226;SDS011;66234;47.642;19.144;2023-04-08T12:04:10;14.38;;;10.23;;
77226;SDS011;66234;47.642;19.144;2023-04-08T12:07:13;15.68;;;9.32;;
77226;SDS011;66234;47.642;19.144;2023-04-08T12:10:15;14.37;;;8.87;;
77226;SDS011;66234;47.642;19.144;2023-04-08T12:13:18;15.75;;;9.40;;
77226;SDS011;66234;47.642;19.144;2023-04-08T12:16:20;16.35;;;10.13;;
77226;SDS011;66234;47.642;19.144;2023-04-08T12:19:23;18.40;;;10.30;;
77226;SDS011;66234;47.642;19.144;2023-04-08T12:22:26;14.95;;;9.20;;
77226;SDS011;66234;47.642;19.144;2023-04-08T12:25:29;15.03;;;8.37;;
77226;SDS011;66234;47.642;19.144;2023-04-08T12:28:32;12.32;;;6.93;;
77226;SDS011;66234;47.642;19.144;2023-04-08T12:31:36;12.15;;;7.72;;
77226;SDS011;66234;47.642;19.144;2023-04-08T12:34:38;12.07;;;7.55;;
77226;SDS011;66234;47.642;19.144;2023-04-08T12:37:41;17.30;;;10.65;;
77226;SDS011;66234;47.642;19.144;2023-04-08T12:40:44;16.40;;;9.87;;
77226;SDS011;66234;47.642;19.144;2023-04-08T12:43:46;13.60;;;8.40;;
77226;SDS011;66234;47.642;19.144;2023-04-08T12:46:49;13.63;;;8.50;;
77226;SDS011;66234;47.642;19.144;2023-04-08T12:49:52;15.50;;;8.93;;
77226;SDS011;66234;47.642;19.144;2023-04-08T12:52:54;13.82;;;9.10;;
77226;SDS011;66234;47.642;19.144;2023-04-08T12:55:57;19.20;;;10.67;;
77226;SDS011;66234;47.642;19.144;2023-04-08T12:59:00;18.83;;;10.82;;
77226;SDS011;66234;47.642;19.144;2023-04-08T13:02:03;15.27;;;9.30;;
77226;SDS011;66234;47.642;19.144;2023-04-08T13:05:06;14.07;;;8.90;;
77226;SDS011;66234;47.642;19.144;2023-04-08T13:08:10;13.52;;;8.73;;
77226;SDS011;66234;47.642;19.144;2023-04-08T13:11:15;16.63;;;9.87;;
77226;SDS011;66234;47.642;19.144;2023-04-08T13:14:18;13.43;;;8.30;;
77226;SDS011;66234;47.642;19.144;2023-04-08T13:17:21;15.40;;;8.82;;
77226;SDS011;66234;47.642;19.144;2023-04-08T13:20:24;16.65;;;10.23;;
77226;SDS011;66234;47.642;19.144;2023-04-08T13:23:27;18.65;;;11.43;;
77226;SDS011;66234;47.642;19.144;2023-04-08T13:26:29;13.10;;;8.20;;
77226;SDS011;66234;47.642;19.144;2023-04-08T13:29:32;17.02;;;10.35;;
77226;SDS011;66234;47.642;19.144;2023-04-08T13:32:35;14.55;;;9.60;;
77226;SDS011;66234;47.642;19.144;2023-04-08T13:35:38;9.05;;;6.10;;
77226;SDS011;66234;47.642;19.144;2023-04-08T13:38:40;17.85;;;8.85;;
77226;SDS011;66234;47.642;19.144;2023-04-08T13:41:43;9.37;;;6.23;;
77226;SDS011;66234;47.642;19.144;2023-04-08T13:44:45;9.57;;;6.28;;
77226;SDS011;66234;47.642;19.144;2023-04-08T13:47:48;11.60;;;7.63;;
77226;SDS011;66234;47.642;19.144;2023-04-08T13:50:51;10.55;;;6.57;;
77226;SDS011;66234;47.642;19.144;2023-04-08T13:53:53;9.93;;;6.82;;
77226;SDS011;66234;47.642;19.144;2023-04-08T13:56:56;8.57;;;6.43;;
77226;SDS011;66234;47.642;19.144;2023-04-08T13:59:59;9.60;;;6.18;;
77226;SDS011;66234;47.642;19.144;2023-04-08T14:03:02;9.90;;;6.05;;
77226;SDS011;66234;47.642;19.144;2023-04-08T14:06:05;9.90;;;6.32;;
77226;SDS011;66234;47.642;19.144;2023-04-08T14:09:08;8.48;;;5.72;;
77226;SDS011;66234;47.642;19.144;2023-04-08T14:12:11;9.87;;;6.10;;
77226;SDS011;66234;47.642;19.144;2023-04-08T14:15:14;12.15;;;7.32;;
77226;SDS011;66234;47.642;19.144;2023-04-08T14:18:16;10.35;;;6.82;;
77226;SDS011;66234;47.642;19.144;2023-04-08T14:21:19;11.23;;;6.78;;
77226;SDS011;66234;47.642;19.144;2023-04-08T14:24:22;11.07;;;7.03;;
77226;SDS011;66234;47.642;19.144;2023-04-08T14:27:24;10.23;;;6.87;;
77226;SDS011;66234;47.642;19.144;2023-04-08T14:30:29;10.95;;;6.97;;
77226;SDS011;66234;47.642;19.144;2023-04-08T14:33:31;9.35;;;5.90;;
77226;SDS011;66234;47.642;19.144;2023-04-08T14:36:34;10.45;;;6.68;;
77226;SDS011;66234;47.642;19.144;2023-04-08T14:39:36;11.23;;;6.88;;
77226;SDS011;66234;47.642;19.144;2023-04-08T14:42:39;10.63;;;6.73;;
77226;SDS011;66234;47.642;19.144;2023-04-08T14:45:41;10.48;;;6.68;;
77226;SDS011;66234;47.642;19.144;2023-04-08T14:48:46;8.57;;;5.82;;
77226;SDS011;66234;47.642;19.144;2023-04-08T14:51:48;10.15;;;5.82;;
77226;SDS011;66234;47.642;19.144;2023-04-08T14:54:54;9.20;;;6.63;;
77226;SDS011;66234;47.642;19.144;2023-04-08T14:57:56;12.63;;;6.90;;
77226;SDS011;66234;47.642;19.144;2023-04-08T15:01:02;13.45;;;8.65;;
77226;SDS011;66234;47.642;19.144;2023-04-08T15:04:05;10.55;;;7.45;;
77226;SDS011;66234;47.642;19.144;2023-04-08T15:07:07;11.55;;;6.85;;
77226;SDS011;66234;47.642;19.144;2023-04-08T15:10:10;13.38;;;7.57;;
77226;SDS011;66234;47.642;19.144;2023-04-08T15:13:13;13.80;;;7.97;;
77226;SDS011;66234;47.642;19.144;2023-04-08T15:16:16;11.32;;;6.72;;
77226;SDS011;66234;47.642;19.144;2023-04-08T15:19:18;12.27;;;7.45;;
77226;SDS011;66234;47.642;19.144;2023-04-08T15:22:21;10.93;;;7.47;;
77226;SDS011;66234;47.642;19.144;2023-04-08T15:25:24;11.27;;;5.82;;
77226;SDS011;66234;47.642;19.144;2023-04-08T15:28:26;9.57;;;5.87;;
77226;SDS011;66234;47.642;19.144;2023-04-08T15:31:29;9.60;;;5.75;;
77226;SDS011;66234;47.642;19.144;2023-04-08T15:34:32;11.25;;;6.65;;
77226;SDS011;66234;47.642;19.144;2023-04-08T15:37:35;10.50;;;6.38;;
77226;SDS011;66234;47.642;19.144;2023-04-08T15:40:38;9.98;;;5.88;;
77226;SDS011;66234;47.642;19.144;2023-04-08T15:43:41;9.53;;;5.90;;
77226;SDS011;66234;47.642;19.144;2023-04-08T15:46:44;10.60;;;6.93;;
77226;SDS011;66234;47.642;19.144;2023-04-08T15:49:47;10.30;;;6.75;;
77226;SDS011;66234;47.642;19.144;2023-04-08T15:52:50;9.68;;;6.20;;
77226;SDS011;66234;47.642;19.144;2023-04-08T15:55:52;13.63;;;8.93;;
77226;SDS011;66234;47.642;19.144;2023-04-08T15:58:55;15.60;;;8.83;;
77226;SDS011;66234;47.642;19.144;2023-04-08T16:01:57;42.53;;;19.23;;
77226;SDS011;66234;47.642;19.144;2023-04-08T16:05:00;37.25;;;14.98;;
77226;SDS011;66234;47.642;19.144;2023-04-08T16:08:03;36.78;;;16.05;;
77226;SDS011;66234;47.642;19.144;2023-04-08T16:11:05;53.45;;;23.00;;
77226;SDS011;66234;47.642;19.144;2023-04-08T16:14:09;25.40;;;13.30;;
77226;SDS011;66234;47.642;19.144;2023-04-08T16:17:12;18.45;;;10.05;;
77226;SDS011;66234;47.642;19.144;2023-04-08T16:20:15;14.57;;;9.13;;
77226;SDS011;66234;47.642;19.144;2023-04-08T16:23:21;15.88;;;9.13;;
77226;SDS011;66234;47.642;19.144;2023-04-08T16:26:24;14.77;;;9.38;;
77226;SDS011;66234;47.642;19.144;2023-04-08T16:29:28;12.93;;;8.77;;
77226;SDS011;66234;47.642;19.144;2023-04-08T16:32:32;43.45;;;19.08;;
77226;SDS011;66234;47.642;19.144;2023-04-08T16:35:34;26.90;;;15.55;;
77226;SDS011;66234;47.642;19.144;2023-04-08T16:38:37;15.13;;;8.68;;
77226;SDS011;66234;47.642;19.144;2023-04-08T16:41:40;12.93;;;7.53;;
77226;SDS011;66234;47.642;19.144;2023-04-08T16:44:42;13.40;;;7.53;;
77226;SDS011;66234;47.642;19.144;2023-04-08T16:47:45;14.18;;;8.80;;
77226;SDS011;66234;47.642;19.144;2023-04-08T16:50:47;15.10;;;9.23;;
77226;SDS011;66234;47.642;19.144;2023-04-08T16:53:50;17.35;;;11.15;;
77226;SDS011;66234;47.642;19.144;2023-04-08T16:56:53;18.65;;;11.85;;
77226;SDS011;66234;47.642;19.144;2023-04-08T16:59:55;20.20;;;12.13;;
77226;SDS011;66234;47.642;19.144;2023-04-08T17:02:58;18.45;;;13.27;;
77226;SDS011;66234;47.642;19.144;2023-04-08T17:06:05;17.23;;;9.88;;
77226;SDS011;66234;47.642;19.144;2023-04-08T17:09:11;17.55;;;10.13;;
77226;SDS011;66234;47.642;19.144;2023-04-08T17:12:14;19.23;;;11.05;;
77226;SDS011;66234;47.642;19.144;2023-04-08T17:15:16;14.93;;;8.90;;
77226;SDS011;66234;47.642;19.144;2023-04-08T17:18:19;20.45;;;10.45;;
77226;SDS011;66234;47.642;19.144;2023-04-08T17:21:22;21.23;;;11.90;;
77226;SDS011;66234;47.642;19.144;2023-04-08T17:24:24;14.38;;;9.20;;
77226;SDS011;66234;47.642;19.144;2023-04-08T17:27:27;14.73;;;8.63;;
77226;SDS011;66234;47.642;19.144;2023-04-08T17:30:30;13.87;;;8.27;;
77226;SDS011;66234;47.642;19.144;2023-04-08T17:33:32;17.05;;;10.82;;
77226;SDS011;66234;47.642;19.144;2023-04-08T17:36:35;30.55;;;17.75;;
77226;SDS011;66234;47.642;19.144;2023-04-08T17:39:38;21.70;;;12.32;;
77226;SDS011;66234;47.642;19.144;2023-04-08T17:42:42;14.00;;;9.15;;
77226;SDS011;66234;47.642;19.144;2023-04-08T17:45:44;21.53;;;12.47;;
77226;SDS011;66234;47.642;19.144;2023-04-08T17:48:48;17.60;;;9.75;;
77226;SDS011;66234;47.642;19.144;2023-04-08T17:51:51;17.63;;;10.25;;
77226;SDS011;66234;47.642;19.144;2023-04-08T17:54:53;19.17;;;11.63;;
77226;SDS011;66234;47.642;19.144;2023-04-08T17:57:56;18.00;;;10.30;;
77226;SDS011;66234;47.642;19.144;2023-04-08T18:00:58;15.23;;;9.73;;
77226;SDS011;66234;47.642;19.144;2023-04-08T18:04:01;21.67;;;11.27;;
77226;SDS011;66234;47.642;19.144;2023-04-08T18:07:06;21.88;;;11.93;;
77226;SDS011;66234;47.642;19.144;2023-04-08T18:10:09;35.55;;;19.20;;